• Join FlightAware (Why Join?)
  • Login
  • US Flag 
10:05PM EDT


 

Airport Tracker/Info


-or-


 

Live Flight TrackerFlight Track Log ✈ AWE3397 ✈ 25-Apr-2013 ✈ KMHT - KPHL

Flight Track Log - Related Links

Times and Time Zones

All times are in EDT time to prevent confusion due to time zone crossing. See the AWE3397 flight status page for this flight to view local times or setup timezone preferences in your user account.

Time Position Orientation Groundspeed Altitude Reporting Facility
EDT Latitude Longitude Course Direction KTS MPH feet Rate Location/Type
05:26AM 42.9500 -71.4333 274° West 146 168 1,200  Level KA90
05:27AM 43.0000 -71.4667 334° Northwest 195 224 3,600 2,040 Climbing KA90
05:28AM 43.0239 -71.5028 312° West 258 297 5,100 2,700 Climbing Boston Center
05:29AM 42.9480 -71.8901 285° West  Level FlightAware Approximate
05:29AM 43.0786 -71.5817 314° West 266 306 8,500  Level Boston Center
05:30AM 42.9500 -72.0052 270° West  Level FlightAware Approximate
05:30AM 43.0939 -71.6581 285° West 225 259 10,800  Level Boston Center
05:31AM 42.9501 -72.1207 270° West  Level FlightAware Approximate
05:31AM 43.0883 -71.7664 266° West 246 283 13,300  Level Boston Center
05:32AM 42.9509 -72.2361 274° West  Level FlightAware Approximate
05:32AM 43.0825 -71.8544 265° West 266 306 15,500  Level Boston Center
05:33AM 43.0767 -71.9767 266° West 285 328 17,600 1,920 Climbing Boston Center
05:34AM 43.0708 -72.0792 266° West 296 341 19,400 1,800 Climbing Boston Center
05:35AM 43.0650 -72.1900 266° West 296 341 21,300 1,860 Climbing Boston Center
05:36AM 43.0567 -72.3008 264° West 302 348 23,200 1,680 Climbing Boston Center
05:37AM 43.0361 -72.4089 255° West 302 348 24,700 1,380 Climbing Boston Center
05:38AM 43.0131 -72.5253 255° West 302 348 26,000 540 Climbing Boston Center
05:39AM 42.9858 -72.6386 252° West 308 354 26,000  Level Boston Center
05:40AM 42.9481 -72.7692 248° West 308 354 26,000  Level Boston Center
05:41AM 42.9144 -72.8739 246° West 308 354 26,000  Level Boston Center
05:42AM 42.8764 -72.9783 244° Southwest 308 354 26,000  Level Boston Center
05:43AM 42.8403 -73.0942 247° West 308 354 26,000  Level Boston Center
05:44AM 42.8042 -73.1956 244° Southwest 308 354 26,000  Level Boston Center
05:45AM 42.7703 -73.3028 247° West 308 354 26,000  Level Boston Center
05:46AM 42.7339 -73.4011 243° Southwest 308 354 26,000  Level Boston Center
05:47AM 42.6997 -73.5022 245° Southwest 303 349 26,000  Level Boston Center
05:48AM 42.6719 -73.5867 246° West 303 349 26,000  Level Boston Center
05:49AM 42.6289 -73.7072 244° Southwest 298 343 26,000  Level Boston Center
05:50AM 42.5944 -73.8050 244° Southwest 298 343 26,000  Level Boston Center
05:51AM 42.5597 -73.9031 244° Southwest 298 343 26,000  Level Boston Center
05:52AM 42.5231 -74.0036 244° Southwest 298 343 26,000  Level Boston Center
05:53AM 42.4817 -74.1264 245° Southwest 293 337 26,000  Level Boston Center
05:54AM 42.4447 -74.2239 243° Southwest 298 343 26,000  Level Boston Center
05:55AM 42.4119 -74.3186 245° Southwest 298 343 26,000  Level Boston Center
05:56AM 42.3750 -74.4131 242° Southwest 298 343 26,000  Level Boston Center
05:57AM 42.3275 -74.5014 234° Southwest 298 343 26,000  Level Boston Center
05:58AM 42.2800 -74.5869 233° Southwest 298 343 26,000  Level Boston Center
05:59AM 42.2325 -74.6694 232° Southwest 288 331 26,000 -60 Level Boston Center
06:00AM 42.1850 -74.7544 233° Southwest 288 331 25,900 -1,020 Descending Boston Center
06:03AM 42.0903 -74.9208 233° Southwest 288 331 22,900 -1,440 Descending New York Center
06:04AM 42.0436 -75.0017 232° Southwest 282 325 21,500 -1,380 Descending New York Center
06:05AM 41.9972 -75.0797 231° Southwest 282 325 20,100 -1,260 Descending New York Center
06:06AM 41.9381 -75.1567 224° Southwest 282 325 19,000 -600 Descending New York Center
06:07AM 41.8758 -75.2056 210° Southwest 270 311 19,000  Level New York Center
06:08AM 41.8181 -75.2517 211° Southwest 275 316 19,000 -60 Level New York Center
06:09AM 41.7556 -75.3058 213° Southwest 275 316 18,900 -780 Descending New York Center
06:10AM 41.6869 -75.3594 210° Southwest 275 316 17,500 -1,380 Descending New York Center
06:11AM 41.6244 -75.4108 212° Southwest 269 310 16,200 -1,380 Descending New York Center
06:12AM 41.5622 -75.4592 210° Southwest 269 310 14,700 -1,560 Descending New York Center
06:13AM 41.5019 -75.5075 211° Southwest 274 315 13,100 -1,380 Descending New York Center
06:14AM 41.4267 -75.5686 211° Southwest 284 327 12,000 -600 Descending New York Center
06:15AM 41.3619 -75.6192 210° Southwest 284 327 12,000  Level New York Center
06:16AM 41.3017 -75.6675 211° Southwest 284 327 12,000  Level New York Center
06:17AM 41.2281 -75.6897 193° South 268 308 12,000 -360 Level New York Center
06:18AM 41.1592 -75.6875 179° South 268 308 11,400 -840 Descending New York Center
06:19AM 41.0822 -75.6872 180° South 282 325 10,400 -720 Descending New York Center
06:20AM 41.0031 -75.6869 180° South 282 325 10,000 -240 Descending New York Center
06:21AM 40.9156 -75.6889 181° South 287 330 10,000  Level New York Center
06:22AM 40.8386 -75.6861 178° South 287 330 10,000  Level New York Center
06:23AM 40.7614 -75.6861 180° South 287 330 10,000  Level New York Center
06:24AM 40.6906 -75.6839 179° South 287 330 10,000 -60 Level New York Center
06:25AM 40.6136 -75.6836 180° South 287 330 9,900  Descending New York Center
06:26AM 40.5400 -75.6044 141° Southeast 313 360 10,000 60 Climbing FAA TRACON SMA TRACON (SMA)
06:26AM 40.5250 -75.5753 124° Southeast 311 358 10,000  Level FAA TRACON SMA TRACON (SMA)
06:26AM 40.5061 -75.5392 125° Southeast 311 358 10,000  Level FAA TRACON SMA TRACON (SMA)
06:27AM 40.4911 -75.5108 125° Southeast 309 356 10,000  Level FAA TRACON SMA TRACON (SMA)
06:27AM 40.4764 -75.4819 124° Southeast 309 356 10,000 -180 Level FAA TRACON SMA TRACON (SMA)
06:27AM 40.4583 -75.4472 124° Southeast 308 354 9,900  Descending FAA TRACON SMA TRACON (SMA)
06:28AM 40.4386 -75.4233 137° Southeast 297 342 10,000  Climbing FAA TRACON SMA TRACON (SMA)
06:28AM 40.4167 -75.4058 149° Southeast 292 336 9,900 -300 Descending FAA TRACON SMA TRACON (SMA)
06:28AM 40.3956 -75.3900 150° Southeast 289 333 9,800 -1,080 Descending FAA TRACON SMA TRACON (SMA)
06:29AM 40.3694 -75.3700 150° Southeast 287 330 9,200 -1,800 Descending FAA TRACON SMA TRACON (SMA)
06:29AM 40.3481 -75.3542 151° Southeast 285 328 8,600 -1,980 Descending FAA TRACON SMA TRACON (SMA)
06:29AM 40.3269 -75.3381 150° Southeast 285 328 7,900 -2,100 Descending FAA TRACON SMA TRACON (SMA)
06:30AM 40.3008 -75.3183 150° Southeast 288 331 7,200 -1,320 Descending FAA TRACON SMA TRACON (SMA)
06:30AM 40.2786 -75.3014 150° Southeast 288 331 7,000 -300 Descending FAA TRACON SMA TRACON (SMA)
06:30AM 40.2567 -75.2850 150° Southeast 290 334 7,000  Level FAA TRACON SMA TRACON (SMA)
06:31AM 40.2294 -75.2642 150° Southeast 292 336 7,000 -180 Level FAA TRACON SMA TRACON (SMA)
06:31AM 40.2089 -75.2486 150° Southeast 291 335 6,900 -480 Descending FAA TRACON SMA TRACON (SMA)
06:31AM 40.1867 -75.2314 149° Southeast 290 334 6,700 -1,260 Descending FAA TRACON SMA TRACON (SMA)
06:32AM 40.1594 -75.2128 152° Southeast 289 333 6,100 -1,080 Descending FAA TRACON SMA TRACON (SMA)
06:32AM 40.1389 -75.1953 147° Southeast 278 320 6,000 -180 Descending FAA TRACON SMA TRACON (SMA)
06:32AM 40.1197 -75.1808 150° Southeast 259 298 6,000  Level FAA TRACON SMA TRACON (SMA)
06:33AM 40.0964 -75.1628 149° Southeast 259 298 6,000 -180 Level FAA TRACON SMA TRACON (SMA)
06:33AM 40.0775 -75.1492 151° Southeast 254 292 5,900 -180 Descending FAA TRACON SMA TRACON (SMA)
06:33AM 40.0589 -75.1353 150° Southeast 254 292 5,900 120 Level FAA TRACON SMA TRACON (SMA)
06:34AM 40.0350 -75.1169 150° Southeast 251 289 6,000 -180 Climbing FAA TRACON SMA TRACON (SMA)
06:34AM 40.0186 -75.1036 148° Southeast 226 260 5,800 -1,080 Descending FAA TRACON SMA TRACON (SMA)
06:34AM 40.0044 -75.0867 138° Southeast 225 259 5,300 -1,680 Descending FAA TRACON SMA TRACON (SMA)
06:35AM 39.9858 -75.0656 139° Southeast 228 262 4,700 -1,500 Descending FAA TRACON SMA TRACON (SMA)
06:35AM 39.9717 -75.0508 141° Southeast 232 267 4,300 -1,080 Descending FAA TRACON SMA TRACON (SMA)
06:35AM 39.9578 -75.0322 134° Southeast 217 250 4,000 -480 Descending FAA TRACON SMA TRACON (SMA)
06:36AM 39.9417 -75.0086 132° Southeast 223 257 4,000 -180 Level FAA TRACON SMA TRACON (SMA)
06:36AM 39.9256 -74.9939 145° Southeast 226 260 3,900 -780 Descending FAA TRACON SMA TRACON (SMA)
06:36AM 39.9078 -74.9953 183° South 212 244 3,500 -1,500 Descending FAA TRACON SMA TRACON (SMA)
06:37AM 39.8969 -75.0167 237° Southwest 181 208 2,900 -1,260 Descending FAA TRACON SMA TRACON (SMA)
06:37AM 39.8986 -75.0353 277° West 149 171 2,700 -600 Descending FAA TRACON SMA TRACON (SMA)
06:37AM 39.8989 -75.0489 272° West 151 174 2,500 -480 Descending FAA TRACON SMA TRACON (SMA)
06:38AM 39.9003 -75.0678 275° West 152 175 2,400 -480 Descending FAA TRACON SMA TRACON (SMA)
06:38AM 39.9011 -75.0892 273° West 154 177 2,200 -600 Descending FAA TRACON SMA TRACON (SMA)